createdAt,value
2019-03-29T00:02:24.515Z,3.95
2019-03-29T00:04:52.263Z,4.90
2019-03-29T00:07:20.189Z,3.52
2019-03-29T00:09:47.496Z,4.70
2019-03-29T00:12:14.834Z,4.37
2019-03-29T00:14:42.326Z,5.65
2019-03-29T00:17:09.665Z,5.67
2019-03-29T00:19:36.945Z,3.55
2019-03-29T00:22:04.952Z,4.55
2019-03-29T00:24:32.545Z,3.75
2019-03-29T00:27:00.284Z,3.80
2019-03-29T00:29:27.783Z,4.35
2019-03-29T00:31:55.109Z,4.15
2019-03-29T00:34:22.404Z,3.92
2019-03-29T00:36:49.658Z,4.53
2019-03-29T00:39:16.956Z,4.72
2019-03-29T00:41:44.307Z,4.22
2019-03-29T00:44:11.564Z,4.62
2019-03-29T00:46:38.920Z,4.15
2019-03-29T00:49:06.364Z,4.45
2019-03-29T00:51:33.656Z,4.15
2019-03-29T00:54:01.903Z,4.47
2019-03-29T00:56:29.566Z,5.42
2019-03-29T00:58:56.846Z,4.67
2019-03-29T01:01:24.285Z,7.00
2019-03-29T01:03:51.731Z,4.90
2019-03-29T01:06:19.009Z,5.90
2019-03-29T01:08:46.300Z,6.35
2019-03-29T01:11:14.276Z,6.87
2019-03-29T01:13:42.394Z,6.03
2019-03-29T01:16:09.662Z,5.83
2019-03-29T01:18:37.880Z,5.85
2019-03-29T01:21:05.610Z,6.70
2019-03-29T01:23:32.951Z,6.70
2019-03-29T01:26:01.038Z,6.30
2019-03-29T01:28:28.475Z,5.83
2019-03-29T01:30:55.836Z,5.53
2019-03-29T01:33:23.306Z,6.45
2019-03-29T01:35:50.957Z,5.97
2019-03-29T01:38:22.174Z,6.20
2019-03-29T01:40:47.428Z,6.92
2019-03-29T01:43:14.767Z,7.35
2019-03-29T01:45:42.033Z,5.85
2019-03-29T01:48:09.411Z,5.53
2019-03-29T01:50:36.743Z,6.33
2019-03-29T01:53:04.049Z,5.67
2019-03-29T01:55:31.315Z,6.62
2019-03-29T01:57:59.071Z,7.17
2019-03-29T02:00:27.995Z,5.50
2019-03-29T02:02:55.269Z,5.35
2019-03-29T02:05:22.580Z,5.95
2019-03-29T02:07:49.839Z,5.42
2019-03-29T02:10:17.150Z,6.20
2019-03-29T02:12:44.919Z,6.47
2019-03-29T02:15:12.307Z,7.30
2019-03-29T02:17:39.587Z,6.50
2019-03-29T02:20:07.829Z,5.90
2019-03-29T02:22:35.135Z,6.15
2019-03-29T02:25:02.487Z,6.62
2019-03-29T02:27:29.847Z,6.05
2019-03-29T02:29:57.106Z,5.42
2019-03-29T02:32:25.149Z,6.65
2019-03-29T02:34:52.976Z,6.25
2019-03-29T02:37:20.465Z,5.08
2019-03-29T02:39:47.743Z,5.10
2019-03-29T02:42:15.284Z,5.50
2019-03-29T02:44:42.831Z,7.70
2019-03-29T02:47:10.103Z,6.22
2019-03-29T02:49:37.384Z,4.85
2019-03-29T02:52:04.707Z,5.03
2019-03-29T02:54:32.015Z,5.55
2019-03-29T02:56:59.376Z,5.67
2019-03-29T02:59:26.732Z,5.90
2019-03-29T03:01:54.069Z,5.37
2019-03-29T03:04:21.334Z,4.95
2019-03-29T03:06:48.774Z,4.58
2019-03-29T03:09:16.199Z,6.75
2019-03-29T03:11:43.462Z,5.87
2019-03-29T03:14:10.743Z,7.40
2019-03-29T03:16:38.046Z,6.65
2019-03-29T03:19:05.329Z,5.30
2019-03-29T03:21:32.616Z,5.42
2019-03-29T03:23:59.989Z,6.33
2019-03-29T03:26:27.253Z,5.45
2019-03-29T03:28:54.556Z,5.50
2019-03-29T03:31:21.924Z,5.87
2019-03-29T03:33:49.281Z,6.10
2019-03-29T03:36:16.606Z,7.28
2019-03-29T03:38:43.968Z,6.53
2019-03-29T03:41:11.317Z,5.97
2019-03-29T03:43:38.705Z,6.42
2019-03-29T03:46:06.031Z,6.25
2019-03-29T03:48:33.317Z,5.83
2019-03-29T03:51:00.591Z,5.62
2019-03-29T03:53:27.948Z,6.35
2019-03-29T03:55:56.000Z,5.25
2019-03-29T03:58:23.971Z,5.78
2019-03-29T04:00:52.130Z,6.37
2019-03-29T04:03:19.596Z,6.87
2019-03-29T04:05:47.224Z,6.20
2019-03-29T04:08:14.530Z,6.95
2019-03-29T04:10:42.398Z,7.22
2019-03-29T04:13:09.833Z,6.53
2019-03-29T04:15:37.113Z,5.08
2019-03-29T04:18:04.544Z,5.90
2019-03-29T04:20:31.836Z,7.05
2019-03-29T04:22:59.208Z,6.83
2019-03-29T04:25:26.487Z,6.37
2019-03-29T04:27:54.209Z,8.05
2019-03-29T04:30:21.546Z,6.00
2019-03-29T04:32:48.879Z,6.30
2019-03-29T04:35:16.167Z,6.10
2019-03-29T04:37:43.440Z,7.25
2019-03-29T04:40:10.818Z,8.03
2019-03-29T04:42:38.083Z,6.97
2019-03-29T04:45:05.948Z,5.80
2019-03-29T04:47:33.219Z,6.55
2019-03-29T04:50:00.501Z,6.28
2019-03-29T04:52:27.795Z,6.00
2019-03-29T04:54:55.080Z,6.15
2019-03-29T04:57:22.378Z,8.18
2019-03-29T04:59:49.655Z,6.55
2019-03-29T05:02:17.795Z,8.10
2019-03-29T05:04:45.173Z,6.05
2019-03-29T05:07:12.571Z,7.15
2019-03-29T05:09:39.840Z,5.28
2019-03-29T05:12:07.136Z,5.22
2019-03-29T05:14:34.422Z,6.60
2019-03-29T05:17:01.680Z,6.25
2019-03-29T05:19:28.978Z,6.00
2019-03-29T05:21:56.480Z,7.50
2019-03-29T05:24:23.781Z,7.72
2019-03-29T05:26:51.113Z,7.03
2019-03-29T05:29:18.433Z,5.62
2019-03-29T05:31:45.780Z,5.33
2019-03-29T05:34:13.103Z,5.20
2019-03-29T05:36:40.401Z,5.75
2019-03-29T05:39:07.668Z,7.65
2019-03-29T05:41:35.031Z,6.28
2019-03-29T05:44:02.378Z,6.05
2019-03-29T05:46:29.665Z,5.12
2019-03-29T05:48:56.923Z,5.03
2019-03-29T05:51:24.210Z,6.28
2019-03-29T05:53:51.488Z,5.25
2019-03-29T05:56:18.830Z,5.87
2019-03-29T05:58:46.334Z,4.35
2019-03-29T06:01:13.594Z,4.92
2019-03-29T06:03:40.874Z,5.10
2019-03-29T06:06:08.218Z,7.42
2019-03-29T06:08:35.607Z,4.78
2019-03-29T06:11:03.563Z,6.08
2019-03-29T06:13:30.845Z,6.17
2019-03-29T06:15:58.103Z,5.15
2019-03-29T06:18:25.379Z,5.15
2019-03-29T06:20:52.644Z,5.00
2019-03-29T06:23:19.910Z,4.75
2019-03-29T06:25:47.176Z,4.58
2019-03-29T06:28:14.531Z,5.70
2019-03-29T06:30:41.827Z,6.65
2019-03-29T06:33:09.087Z,4.25
2019-03-29T06:35:38.137Z,4.60
2019-03-29T06:38:06.242Z,6.15
2019-03-29T06:40:33.524Z,4.53
2019-03-29T06:43:03.080Z,4.80
2019-03-29T06:45:30.336Z,4.72
2019-03-29T06:47:57.636Z,3.87
2019-03-29T06:50:24.913Z,3.47
2019-03-29T06:52:52.241Z,4.40
2019-03-29T06:55:19.512Z,3.87
2019-03-29T06:57:46.782Z,4.15
2019-03-29T07:00:14.213Z,4.22
2019-03-29T07:02:41.793Z,4.42
2019-03-29T07:05:09.078Z,5.08
2019-03-29T07:07:36.785Z,4.33
2019-03-29T07:10:05.528Z,4.37
2019-03-29T07:12:32.806Z,5.72
2019-03-29T07:15:00.101Z,7.00
2019-03-29T07:17:27.478Z,7.90
2019-03-29T07:19:54.769Z,8.25
2019-03-29T07:22:22.043Z,8.28
2019-03-29T07:24:49.342Z,8.10
2019-03-29T07:27:16.620Z,10.38
2019-03-29T07:29:44.046Z,11.45
2019-03-29T07:32:11.321Z,12.68
2019-03-29T07:34:38.616Z,9.60
2019-03-29T07:37:06.088Z,14.18
2019-03-29T07:39:33.462Z,14.40
2019-03-29T07:42:00.736Z,23.38
2019-03-29T07:44:28.613Z,19.15
2019-03-29T07:46:55.954Z,19.77
2019-03-29T07:49:23.238Z,15.10
2019-03-29T07:51:50.510Z,12.33
2019-03-29T07:54:17.795Z,14.90
2019-03-29T07:56:45.146Z,12.60
2019-03-29T07:59:12.410Z,9.90
2019-03-29T08:01:39.698Z,19.67
2019-03-29T08:04:06.966Z,19.90
2019-03-29T08:06:34.237Z,20.02
2019-03-29T08:09:01.599Z,20.23
2019-03-29T08:11:28.893Z,20.23
2019-03-29T08:13:56.188Z,19.80
2019-03-29T08:16:23.480Z,18.90
2019-03-29T08:18:50.817Z,29.50
2019-03-29T08:21:18.081Z,24.50
2019-03-29T08:23:45.428Z,23.85
2019-03-29T08:26:12.689Z,25.72
2019-03-29T08:28:39.968Z,32.25
2019-03-29T08:31:07.242Z,30.00
2019-03-29T08:33:34.531Z,28.60
2019-03-29T08:36:01.797Z,27.85
2019-03-29T08:38:29.166Z,27.37
2019-03-29T08:40:56.441Z,23.65
2019-03-29T08:43:23.724Z,18.80
2019-03-29T08:45:50.994Z,22.87
2019-03-29T08:48:18.603Z,30.60
2019-03-29T08:50:45.864Z,28.32
2019-03-29T08:53:13.198Z,24.32
2019-03-29T08:55:45.963Z,23.67
2019-03-29T08:58:09.670Z,24.63
2019-03-29T09:00:37.109Z,18.67
2019-03-29T09:03:04.371Z,24.27
2019-03-29T09:05:31.718Z,23.85
2019-03-29T09:07:59.064Z,19.95
2019-03-29T09:10:26.713Z,21.27
2019-03-29T09:12:54.084Z,24.57
2019-03-29T09:15:21.373Z,22.20
2019-03-29T09:17:48.710Z,21.50
2019-03-29T09:20:16.077Z,23.15
2019-03-29T09:22:43.414Z,23.38
2019-03-29T09:25:10.759Z,36.20
2019-03-29T09:27:39.114Z,36.60
2019-03-29T09:30:06.800Z,37.15
2019-03-29T09:32:34.277Z,35.08
2019-03-29T09:35:01.557Z,28.20
2019-03-29T09:37:28.846Z,28.52
2019-03-29T09:39:56.101Z,23.90
2019-03-29T09:42:29.399Z,33.13
2019-03-29T09:44:52.603Z,30.62
2019-03-29T09:47:19.912Z,26.10
2019-03-29T09:49:47.278Z,28.73
2019-03-29T09:52:14.683Z,26.40
2019-03-29T09:54:41.958Z,25.72
2019-03-29T09:57:10.105Z,23.05
2019-03-29T09:59:38.853Z,24.47
2019-03-29T10:02:06.116Z,24.52
2019-03-29T10:04:33.382Z,22.37
2019-03-29T10:07:00.725Z,25.75
2019-03-29T10:09:28.039Z,21.68
2019-03-29T10:11:55.367Z,29.85
2019-03-29T10:14:22.648Z,30.75
2019-03-29T10:16:50.022Z,23.15
2019-03-29T10:19:17.309Z,24.25
2019-03-29T10:21:51.474Z,27.00
2019-03-29T10:24:18.755Z,37.85
2019-03-29T10:26:46.031Z,30.30
2019-03-29T10:29:13.318Z,25.72
2019-03-29T10:31:40.594Z,23.42
2019-03-29T10:34:07.881Z,25.10
2019-03-29T10:36:35.250Z,24.30
2019-03-29T10:39:02.754Z,20.80
2019-03-29T10:41:30.069Z,18.02
2019-03-29T10:43:57.402Z,28.42
2019-03-29T10:46:24.714Z,23.22
2019-03-29T10:48:52.169Z,27.15
2019-03-29T10:51:19.455Z,36.73
2019-03-29T10:53:46.718Z,33.23
2019-03-29T10:56:14.022Z,30.20
2019-03-29T10:58:44.722Z,33.98
2019-03-29T11:01:10.304Z,26.90
2019-03-29T11:03:37.610Z,23.35
2019-03-29T11:06:04.907Z,24.67
2019-03-29T11:08:34.331Z,29.27
2019-03-29T11:11:01.666Z,19.40
2019-03-29T11:13:29.018Z,29.40
2019-03-29T11:15:56.301Z,28.23
2019-03-29T11:18:23.586Z,25.88
2019-03-29T11:20:51.789Z,25.20
2019-03-29T11:23:19.064Z,19.10
2019-03-29T11:25:48.602Z,22.98
2019-03-29T11:28:15.383Z,23.87
2019-03-29T11:30:43.145Z,19.77
2019-03-29T11:33:10.720Z,15.70
2019-03-29T11:35:38.084Z,27.85
2019-03-29T11:38:05.455Z,34.08
2019-03-29T11:40:32.914Z,26.27
2019-03-29T11:43:00.216Z,38.55
2019-03-29T11:45:27.486Z,20.95
2019-03-29T11:48:07.477Z,21.97
2019-03-29T11:50:23.890Z,32.35
2019-03-29T11:52:51.243Z,28.73
2019-03-29T11:55:18.585Z,26.15
2019-03-29T11:57:45.858Z,22.35
2019-03-29T12:00:13.408Z,21.68
2019-03-29T12:02:40.705Z,16.42
2019-03-29T12:05:08.064Z,20.05
2019-03-29T12:07:35.423Z,26.70
2019-03-29T12:10:03.883Z,27.98
2019-03-29T12:12:31.173Z,30.30
2019-03-29T12:14:58.434Z,34.23
2019-03-29T12:17:25.718Z,27.30
2019-03-29T12:19:53.006Z,21.52
2019-03-29T12:22:20.291Z,25.62
2019-03-29T12:24:47.581Z,36.23
2019-03-29T12:27:14.897Z,27.50
2019-03-29T12:29:42.269Z,27.60
2019-03-29T12:32:09.647Z,34.67
2019-03-29T12:34:36.982Z,30.92
2019-03-29T12:37:04.314Z,31.90
2019-03-29T12:39:31.646Z,34.08
2019-03-29T12:41:59.013Z,35.70
2019-03-29T12:44:26.288Z,30.57
2019-03-29T12:46:53.578Z,22.75
2019-03-29T12:49:20.850Z,28.83
2019-03-29T12:51:48.140Z,29.12
2019-03-29T12:54:18.388Z,24.70
2019-03-29T12:56:45.676Z,38.45
2019-03-29T12:59:12.960Z,27.17
2019-03-29T13:01:40.607Z,29.55
2019-03-29T13:04:09.801Z,33.98
2019-03-29T13:06:37.362Z,25.02
2019-03-29T13:09:05.446Z,28.45
2019-03-29T13:11:32.751Z,36.08
2019-03-29T13:14:10.015Z,30.50
2019-03-29T13:16:29.068Z,28.73
2019-03-29T13:18:56.334Z,26.73
2019-03-29T13:21:23.758Z,32.42
2019-03-29T13:23:51.035Z,26.15
2019-03-29T13:26:18.322Z,32.00
2019-03-29T13:28:45.594Z,31.40
2019-03-29T13:31:13.283Z,20.20
2019-03-29T13:33:40.637Z,20.50
2019-03-29T13:36:07.979Z,21.62
2019-03-29T13:38:35.393Z,30.35
2019-03-29T13:41:03.101Z,22.98
2019-03-29T13:43:30.358Z,21.40
2019-03-29T13:45:57.733Z,20.72
2019-03-29T13:48:25.015Z,26.40
2019-03-29T13:50:52.338Z,22.87
2019-03-29T13:53:19.626Z,28.05
2019-03-29T13:55:46.899Z,25.20
2019-03-29T13:58:14.187Z,20.27
2019-03-29T14:00:41.462Z,36.73
2019-03-29T14:03:08.765Z,31.10
2019-03-29T14:05:36.248Z,23.00
2019-03-29T14:08:03.551Z,19.25
2019-03-29T14:10:30.978Z,28.90
2019-03-29T14:12:58.293Z,26.87
2019-03-29T14:15:25.564Z,16.93
2019-03-29T14:17:52.839Z,19.45
2019-03-29T14:20:29.956Z,22.00
2019-03-29T14:22:57.218Z,22.22
2019-03-29T14:25:24.517Z,18.80
2019-03-29T14:27:51.814Z,28.67
2019-03-29T14:30:19.166Z,31.10
2019-03-29T14:32:46.506Z,31.15
2019-03-29T14:35:13.870Z,25.68
2019-03-29T14:37:41.151Z,32.28
2019-03-29T14:40:08.799Z,27.65
2019-03-29T14:42:36.270Z,29.02
2019-03-29T14:45:05.087Z,30.60
2019-03-29T14:47:41.177Z,26.33
2019-03-29T14:50:01.373Z,24.23
2019-03-29T14:52:28.661Z,20.55
2019-03-29T14:54:55.970Z,18.62
2019-03-29T14:57:23.265Z,29.27
2019-03-29T14:59:50.700Z,28.27
2019-03-29T15:02:18.086Z,24.07
2019-03-29T15:04:45.466Z,25.75
2019-03-29T15:07:12.971Z,23.40
2019-03-29T15:09:40.241Z,20.75
2019-03-29T15:12:07.620Z,16.70
2019-03-29T15:14:34.931Z,19.35
2019-03-29T15:17:02.219Z,17.77
2019-03-29T15:19:29.523Z,17.30
2019-03-29T15:21:56.798Z,19.17
2019-03-29T15:24:24.086Z,11.33
2019-03-29T15:26:51.388Z,14.28
2019-03-29T15:29:18.691Z,14.87
2019-03-29T15:31:46.092Z,13.75
2019-03-29T15:34:13.379Z,13.35
2019-03-29T15:36:40.673Z,13.05
2019-03-29T15:39:08.322Z,12.58
2019-03-29T15:41:35.657Z,11.70
2019-03-29T15:44:02.968Z,10.00
2019-03-29T15:46:30.279Z,10.18
2019-03-29T15:48:57.579Z,8.03
2019-03-29T15:51:24.882Z,11.97
2019-03-29T15:53:52.193Z,9.75
2019-03-29T15:56:19.455Z,6.72
2019-03-29T15:58:46.783Z,8.98
2019-03-29T16:07:28.379Z,8.98
2019-03-29T16:09:55.073Z,5.08
2019-03-29T16:12:21.391Z,4.40
2019-03-29T16:14:47.902Z,3.50
2019-03-29T16:17:14.090Z,4.45
2019-03-29T16:19:40.221Z,6.30
2019-03-29T16:22:06.380Z,9.30
2019-03-29T16:24:32.572Z,9.15
2019-03-29T16:26:58.709Z,9.88
2019-03-29T16:29:24.899Z,9.65
2019-03-29T16:31:51.122Z,7.15
2019-03-29T16:34:17.584Z,7.97
2019-03-29T16:36:43.824Z,8.88
2019-03-29T16:39:10.033Z,9.25
2019-03-29T16:41:36.246Z,8.60
2019-03-29T16:44:03.283Z,7.47
2019-03-29T16:46:29.680Z,5.72
2019-03-29T16:48:55.877Z,7.75
2019-03-29T16:51:22.225Z,5.72
2019-03-29T16:53:48.393Z,9.68
2019-03-29T16:56:14.875Z,6.20
2019-03-29T16:58:41.388Z,9.53
2019-03-29T17:01:07.957Z,5.72
2019-03-29T17:03:34.477Z,5.90
2019-03-29T17:06:00.966Z,5.33
2019-03-29T17:08:27.275Z,5.47
2019-03-29T17:10:53.486Z,6.83
2019-03-29T17:13:19.663Z,5.70
2019-03-29T17:15:45.770Z,6.12
2019-03-29T17:18:11.980Z,5.55
2019-03-29T17:20:38.090Z,6.45
2019-03-29T17:23:04.228Z,5.92
2019-03-29T17:25:30.786Z,6.62
2019-03-29T17:27:57.079Z,4.70
2019-03-29T17:30:40.116Z,4.78
2019-03-29T17:33:06.398Z,4.10
2019-03-29T17:35:32.532Z,4.60
2019-03-29T17:37:58.661Z,5.47
2019-03-29T17:40:24.749Z,4.90
2019-03-29T17:42:50.871Z,4.85
2019-03-29T17:45:17.196Z,5.12
2019-03-29T17:47:43.412Z,5.90
2019-03-29T17:50:09.917Z,11.45
2019-03-29T17:52:36.063Z,12.15
2019-03-29T17:55:05.339Z,14.63
2019-03-29T17:57:31.562Z,28.00
2019-03-29T17:59:57.904Z,17.40
2019-03-29T18:02:24.304Z,29.35
2019-03-29T18:04:50.514Z,20.75
2019-03-29T18:07:16.736Z,29.23
2019-03-29T18:09:42.859Z,23.73
2019-03-29T18:12:11.363Z,22.75
2019-03-29T18:14:37.013Z,20.02
2019-03-29T18:17:03.140Z,25.95
2019-03-29T18:19:29.361Z,29.00
2019-03-29T18:21:55.455Z,32.83
2019-03-29T18:24:21.578Z,21.93
2019-03-29T18:26:47.680Z,23.15
2019-03-29T18:29:13.900Z,18.12
2019-03-29T18:31:40.007Z,25.65
2019-03-29T18:34:06.122Z,22.75
2019-03-29T18:36:33.057Z,23.47
2019-03-29T18:38:59.370Z,15.35
2019-03-29T18:41:25.467Z,19.37
2019-03-29T18:43:51.561Z,21.62
2019-03-29T18:46:17.689Z,19.07
2019-03-29T18:48:43.786Z,17.70
2019-03-29T18:51:09.895Z,25.12
2019-03-29T18:53:35.990Z,20.70
2019-03-29T18:56:02.389Z,23.60
2019-03-29T18:58:28.614Z,19.17
2019-03-29T19:00:54.818Z,17.27
2019-03-29T19:03:21.042Z,19.70
2019-03-29T19:05:47.299Z,18.00
2019-03-29T19:08:13.596Z,10.58
2019-03-29T19:10:42.348Z,12.65
2019-03-29T19:13:08.519Z,14.60
2019-03-29T19:15:34.616Z,13.55
2019-03-29T19:18:01.404Z,14.95
2019-03-29T19:20:28.381Z,11.78
2019-03-29T19:22:54.782Z,11.43
2019-03-29T19:25:20.880Z,14.05
2019-03-29T19:27:47.009Z,13.05
2019-03-29T19:30:16.396Z,16.82
2019-03-29T19:33:02.434Z,13.48
2019-03-29T19:35:28.558Z,13.10
2019-03-29T19:37:54.785Z,15.70
2019-03-29T19:40:23.252Z,15.75
2019-03-29T19:42:49.445Z,15.20
2019-03-29T19:45:16.657Z,17.82
2019-03-29T19:47:42.928Z,14.03
2019-03-29T19:50:09.967Z,15.95
2019-03-29T19:52:36.308Z,19.57
2019-03-29T19:55:03.871Z,17.15
2019-03-29T19:57:30.363Z,13.93
2019-03-29T19:59:56.617Z,12.70
2019-03-29T20:02:22.866Z,20.72
2019-03-29T20:04:53.173Z,14.87
2019-03-29T20:07:20.431Z,16.80
2019-03-29T20:09:46.734Z,12.00
2019-03-29T20:12:12.846Z,14.78
2019-03-29T20:14:38.959Z,14.40
2019-03-29T20:17:05.088Z,16.30
2019-03-29T20:19:31.273Z,14.50
2019-03-29T20:21:57.401Z,11.40
2019-03-29T20:24:23.496Z,18.05
2019-03-29T20:26:49.625Z,16.67
2019-03-29T20:29:15.740Z,13.45
2019-03-29T20:31:41.852Z,14.07
2019-03-29T20:34:08.026Z,14.73
2019-03-29T20:36:34.194Z,16.70
2019-03-29T20:39:00.310Z,18.35
2019-03-29T20:41:26.392Z,16.62
2019-03-29T20:43:52.521Z,16.95
2019-03-29T20:46:18.611Z,16.48
2019-03-29T20:48:44.745Z,15.50
2019-03-29T20:51:10.834Z,16.05
2019-03-29T20:53:36.936Z,14.00
2019-03-29T20:56:06.279Z,13.90
2019-03-29T20:58:31.070Z,13.78
2019-03-29T21:00:57.188Z,13.58
2019-03-29T21:03:23.318Z,24.37
2019-03-29T21:05:49.410Z,17.85
2019-03-29T21:08:15.531Z,16.97
2019-03-29T21:10:55.051Z,14.68
2019-03-29T21:13:09.743Z,15.15
2019-03-29T21:15:35.869Z,18.02
2019-03-29T21:18:02.087Z,14.15
2019-03-29T21:20:28.182Z,16.55
2019-03-29T21:22:54.301Z,15.53
2019-03-29T21:25:20.519Z,14.85
2019-03-29T21:27:46.706Z,18.50
2019-03-29T21:30:14.523Z,15.95
2019-03-29T21:32:40.733Z,18.52
2019-03-29T21:35:07.671Z,17.48
2019-03-29T21:37:34.667Z,17.00
2019-03-29T21:40:00.800Z,18.07
2019-03-29T21:42:26.894Z,18.05
2019-03-29T21:44:52.989Z,16.50
2019-03-29T21:47:19.098Z,15.35
2019-03-29T21:49:45.262Z,23.12
2019-03-29T21:52:11.473Z,16.55
2019-03-29T21:54:37.670Z,15.30
2019-03-29T21:57:03.839Z,16.42
2019-03-29T21:59:29.946Z,17.10
2019-03-29T22:01:56.075Z,15.58
2019-03-29T22:04:22.178Z,16.27
2019-03-29T22:06:48.407Z,18.20
2019-03-29T22:09:14.894Z,16.70
2019-03-29T22:11:41.026Z,16.48
2019-03-29T22:14:07.204Z,20.60
2019-03-29T22:16:33.314Z,20.85
2019-03-29T22:18:59.438Z,15.03
2019-03-29T22:21:25.572Z,13.68
2019-03-29T22:23:51.835Z,15.70
2019-03-29T22:26:18.043Z,15.08
2019-03-29T22:28:44.163Z,16.85
2019-03-29T22:31:10.260Z,13.75
2019-03-29T22:33:38.741Z,17.60
2019-03-29T22:36:04.870Z,17.80
2019-03-29T22:38:30.992Z,16.62
2019-03-29T22:40:57.091Z,14.87
2019-03-29T22:43:23.211Z,16.10
2019-03-29T22:45:49.306Z,16.97
2019-03-29T22:48:15.450Z,14.73
2019-03-29T22:50:41.655Z,14.40
2019-03-29T22:53:07.760Z,14.25
2019-03-29T22:55:34.295Z,15.18
2019-03-29T22:58:00.387Z,17.52
2019-03-29T23:00:32.431Z,16.55
2019-03-29T23:02:58.597Z,15.55
2019-03-29T23:05:24.825Z,17.23
2019-03-29T23:07:50.939Z,14.93
2019-03-29T23:10:17.341Z,15.05
2019-03-29T23:12:43.458Z,12.20
2019-03-29T23:15:09.860Z,18.27
2019-03-29T23:17:35.971Z,16.32
2019-03-29T23:20:03.743Z,14.90
2019-03-29T23:22:29.879Z,14.15
2019-03-29T23:24:55.982Z,12.53
2019-03-29T23:27:22.196Z,15.20
2019-03-29T23:29:48.290Z,14.13
2019-03-29T23:32:14.401Z,12.37
2019-03-29T23:34:40.519Z,14.05
2019-03-29T23:37:06.628Z,9.70
2019-03-29T23:39:32.746Z,11.88
2019-03-29T23:41:58.845Z,11.90
2019-03-29T23:44:24.957Z,14.60
2019-03-29T23:46:51.087Z,13.43
2019-03-29T23:49:21.392Z,15.10
2019-03-29T23:51:45.240Z,10.55
2019-03-29T23:54:11.366Z,11.30
2019-03-29T23:56:37.462Z,11.88
2019-03-29T23:59:03.683Z,15.18
